sensor_id;sensor_type;location;lat;lon;timestamp;pressure;altitude;pressure_sealevel;temperature;humidity
60725;BME280;59881;36.722;-4.462;2023-01-27T00:00:53;100880.81;;;6.81;49.97
60725;BME280;59881;36.722;-4.462;2023-01-27T00:03:20;100153.94;;;2.45;49.79
60725;BME280;59881;36.722;-4.462;2023-01-27T00:05:46;100732.34;;;5.73;49.74
60725;BME280;59881;36.722;-4.462;2023-01-27T00:08:12;100780.88;;;6.18;49.78
60725;BME280;59881;36.722;-4.462;2023-01-27T00:10:38;100486.53;;;4.45;49.67
60725;BME280;59881;36.722;-4.462;2023-01-27T00:13:03;100662.97;;;5.47;49.56
60725;BME280;59881;36.722;-4.462;2023-01-27T00:15:47;100867.59;;;6.66;50.39
60725;BME280;59881;36.722;-4.462;2023-01-27T00:18:13;100328.50;;;3.22;50.36
60725;BME280;59881;36.722;-4.462;2023-01-27T00:20:39;100602.97;;;4.87;50.74
60725;BME280;59881;36.722;-4.462;2023-01-27T00:23:25;100584.59;;;4.90;50.80
60725;BME280;59881;36.722;-4.462;2023-01-27T00:26:14;100737.66;;;5.90;51.23
60725;BME280;59881;36.722;-4.462;2023-01-27T00:28:41;100856.84;;;6.72;52.01
60725;BME280;59881;36.722;-4.462;2023-01-27T00:31:08;100787.69;;;6.39;51.94
60725;BME280;59881;36.722;-4.462;2023-01-27T00:33:52;100781.56;;;6.40;52.45
60725;BME280;59881;36.722;-4.462;2023-01-27T00:36:22;100511.44;;;3.92;53.04
60725;BME280;59881;36.722;-4.462;2023-01-27T00:38:47;100517.91;;;4.83;53.69
60725;BME280;59881;36.722;-4.462;2023-01-27T00:41:13;100423.03;;;4.06;53.71
60725;BME280;59881;36.722;-4.462;2023-01-27T00:43:46;100855.94;;;6.90;54.07
60725;BME280;59881;36.722;-4.462;2023-01-27T00:46:12;100862.19;;;6.88;54.55
60725;BME280;59881;36.722;-4.462;2023-01-27T00:48:38;100744.47;;;6.13;54.52
60725;BME280;59881;36.722;-4.462;2023-01-27T00:51:04;100605.03;;;4.60;53.86
60725;BME280;59881;36.722;-4.462;2023-01-27T00:53:30;100860.69;;;6.65;53.84
60725;BME280;59881;36.722;-4.462;2023-01-27T00:55:56;100856.84;;;6.53;53.00
60725;BME280;59881;36.722;-4.462;2023-01-27T00:58:25;100775.78;;;5.96;52.67
60725;BME280;59881;36.722;-4.462;2023-01-27T01:00:55;100807.66;;;6.04;53.51
60725;BME280;59881;36.722;-4.462;2023-01-27T01:03:21;100823.06;;;6.10;54.25
60725;BME280;59881;36.722;-4.462;2023-01-27T01:05:48;100853.47;;;6.32;54.07
60725;BME280;59881;36.722;-4.462;2023-01-27T01:08:14;100874.34;;;6.33;53.99
60725;BME280;59881;36.722;-4.462;2023-01-27T01:10:40;100876.09;;;6.33;53.75
60725;BME280;59881;36.722;-4.462;2023-01-27T01:13:06;100886.66;;;6.31;53.87
60725;BME280;59881;36.722;-4.462;2023-01-27T01:15:35;100106.94;;;1.86;53.44
60725;BME280;59881;36.722;-4.462;2023-01-27T01:18:03;100844.41;;;6.39;53.16
60725;BME280;59881;36.722;-4.462;2023-01-27T01:20:29;100854.66;;;6.43;53.48
60725;BME280;59881;36.722;-4.462;2023-01-27T01:22:54;100801.72;;;6.19;54.05
60725;BME280;59881;36.722;-4.462;2023-01-27T01:25:21;100846.81;;;6.43;53.18
60725;BME280;59881;36.722;-4.462;2023-01-27T01:27:47;100693.28;;;5.51;53.59
60725;BME280;59881;36.722;-4.462;2023-01-27T01:30:12;100675.63;;;5.37;54.15
60725;BME280;59881;36.722;-4.462;2023-01-27T01:32:38;100775.56;;;6.00;53.60
60725;BME280;59881;36.722;-4.462;2023-01-27T01:35:03;100350.31;;;3.40;53.40
60725;BME280;59881;36.722;-4.462;2023-01-27T01:37:29;100842.66;;;6.01;53.81
60725;BME280;59881;36.722;-4.462;2023-01-27T01:39:55;100875.88;;;6.37;53.66
60725;BME280;59881;36.722;-4.462;2023-01-27T01:42:20;100835.09;;;6.33;53.86
60725;BME280;59881;36.722;-4.462;2023-01-27T01:44:46;100760.50;;;5.87;53.71
60725;BME280;59881;36.722;-4.462;2023-01-27T01:47:16;100458.50;;;3.90;53.49
60725;BME280;59881;36.722;-4.462;2023-01-27T01:49:43;100549.72;;;4.51;53.78
60725;BME280;59881;36.722;-4.462;2023-01-27T01:54:50;99873.56;;;0.26;53.78
60725;BME280;59881;36.722;-4.462;2023-01-27T01:57:26;100707.31;;;5.29;54.38
60725;BME280;59881;36.722;-4.462;2023-01-27T01:59:59;100837.97;;;6.08;54.59
60725;BME280;59881;36.722;-4.462;2023-01-27T02:02:26;100608.38;;;3.78;54.63
60725;BME280;59881;36.722;-4.462;2023-01-27T02:05:02;100834.00;;;5.99;54.85
60725;BME280;59881;36.722;-4.462;2023-01-27T02:10:09;100832.56;;;5.92;55.37
60725;BME280;59881;36.722;-4.462;2023-01-27T02:12:37;101006.97;;;5.90;55.20
60725;BME280;59881;36.722;-4.462;2023-01-27T02:15:04;101030.66;;;5.87;55.58
60725;BME280;59881;36.722;-4.462;2023-01-27T02:17:30;100764.28;;;5.40;55.61
60725;BME280;59881;36.722;-4.462;2023-01-27T02:20:11;100832.06;;;5.84;55.30
60725;BME280;59881;36.722;-4.462;2023-01-27T02:22:46;100828.66;;;5.82;55.75
60725;BME280;59881;36.722;-4.462;2023-01-27T02:25:18;100822.72;;;5.78;56.10
60725;BME280;59881;36.722;-4.462;2023-01-27T02:27:48;100495.63;;;3.75;55.63
60725;BME280;59881;36.722;-4.462;2023-01-27T02:30:13;100847.50;;;5.70;55.98
60725;BME280;59881;36.722;-4.462;2023-01-27T02:32:39;100823.16;;;5.69;56.12
60725;BME280;59881;36.722;-4.462;2023-01-27T02:35:08;100824.81;;;5.70;56.03
60725;BME280;59881;36.722;-4.462;2023-01-27T02:37:36;100239.53;;;2.05;55.81
60725;BME280;59881;36.722;-4.462;2023-01-27T02:40:03;100679.47;;;4.68;56.36
60725;BME280;59881;36.722;-4.462;2023-01-27T02:42:30;100824.44;;;5.59;56.40
60725;BME280;59881;36.722;-4.462;2023-01-27T02:44:55;100828.13;;;5.55;56.47
60725;BME280;59881;36.722;-4.462;2023-01-27T02:47:21;100333.09;;;2.51;56.86
60725;BME280;59881;36.722;-4.462;2023-01-27T02:49:46;100818.84;;;5.48;56.42
60725;BME280;59881;36.722;-4.462;2023-01-27T02:52:14;100764.13;;;5.04;56.41
60725;BME280;59881;36.722;-4.462;2023-01-27T02:54:39;100630.94;;;4.23;56.74
60725;BME280;59881;36.722;-4.462;2023-01-27T02:57:05;100833.22;;;5.37;56.95
60725;BME280;59881;36.722;-4.462;2023-01-27T02:59:31;100898.66;;;5.34;57.33
60725;BME280;59881;36.722;-4.462;2023-01-27T03:01:57;100911.28;;;5.03;57.34
60725;BME280;59881;36.722;-4.462;2023-01-27T03:04:22;100232.28;;;1.68;57.17
60725;BME280;59881;36.722;-4.462;2023-01-27T03:06:48;100838.81;;;5.28;57.83
60725;BME280;59881;36.722;-4.462;2023-01-27T03:09:13;100833.66;;;5.27;57.43
60725;BME280;59881;36.722;-4.462;2023-01-27T03:11:39;100690.16;;;4.42;57.34
60725;BME280;59881;36.722;-4.462;2023-01-27T03:14:23;100834.72;;;5.23;57.94
60725;BME280;59881;36.722;-4.462;2023-01-27T03:17:07;100760.66;;;4.83;58.21
60725;BME280;59881;36.722;-4.462;2023-01-27T03:19:50;100774.78;;;4.56;57.90
60725;BME280;59881;36.722;-4.462;2023-01-27T03:22:17;100674.13;;;4.29;57.83
60725;BME280;59881;36.722;-4.462;2023-01-27T03:24:44;99875.44;;;-0.51;58.25
60725;BME280;59881;36.722;-4.462;2023-01-27T03:27:10;100876.44;;;5.24;58.94
60725;BME280;59881;36.722;-4.462;2023-01-27T03:29:35;100829.38;;;5.26;58.81
60725;BME280;59881;36.722;-4.462;2023-01-27T03:32:19;100978.13;;;5.29;59.02
60725;BME280;59881;36.722;-4.462;2023-01-27T03:34:45;100823.03;;;5.31;58.81
60725;BME280;59881;36.722;-4.462;2023-01-27T03:37:11;100821.31;;;5.30;58.81
60725;BME280;59881;36.722;-4.462;2023-01-27T03:39:55;100826.75;;;5.26;58.05
60725;BME280;59881;36.722;-4.462;2023-01-27T03:42:38;100749.03;;;4.69;58.69
60725;BME280;59881;36.722;-4.462;2023-01-27T03:45:22;100161.19;;;1.25;58.96
60725;BME280;59881;36.722;-4.462;2023-01-27T03:48:06;100741.13;;;4.71;58.73
60725;BME280;59881;36.722;-4.462;2023-01-27T03:50:32;100996.16;;;5.13;59.01
60725;BME280;59881;36.722;-4.462;2023-01-27T03:53:08;100821.13;;;5.14;58.85
60725;BME280;59881;36.722;-4.462;2023-01-27T03:55:36;100778.81;;;4.86;59.21
60725;BME280;59881;36.722;-4.462;2023-01-27T03:58:02;100817.00;;;5.09;59.00
60725;BME280;59881;36.722;-4.462;2023-01-27T04:00:49;100688.03;;;4.29;58.71
60725;BME280;59881;36.722;-4.462;2023-01-27T04:03:16;100159.22;;;1.08;59.34
60725;BME280;59881;36.722;-4.462;2023-01-27T04:06:05;100826.16;;;5.19;59.48
60725;BME280;59881;36.722;-4.462;2023-01-27T04:08:50;100815.50;;;5.24;58.92
60725;BME280;59881;36.722;-4.462;2023-01-27T04:11:15;100782.09;;;4.47;58.85
60725;BME280;59881;36.722;-4.462;2023-01-27T04:14:04;100496.06;;;2.27;58.89
60725;BME280;59881;36.722;-4.462;2023-01-27T04:16:31;99987.56;;;-0.24;58.49
60725;BME280;59881;36.722;-4.462;2023-01-27T04:18:57;100716.78;;;4.50;59.21
60725;BME280;59881;36.722;-4.462;2023-01-27T04:21:23;100732.25;;;4.54;58.77
60725;BME280;59881;36.722;-4.462;2023-01-27T04:23:52;100699.94;;;4.37;58.94
60725;BME280;59881;36.722;-4.462;2023-01-27T04:26:18;100393.47;;;1.38;58.47
60725;BME280;59881;36.722;-4.462;2023-01-27T04:28:44;100295.94;;;1.80;58.97
60725;BME280;59881;36.722;-4.462;2023-01-27T04:31:10;100928.03;;;4.97;59.28
60725;BME280;59881;36.722;-4.462;2023-01-27T04:33:36;100323.16;;;1.93;59.04
60725;BME280;59881;36.722;-4.462;2023-01-27T04:36:01;100059.13;;;0.29;58.96
60725;BME280;59881;36.722;-4.462;2023-01-27T04:38:27;100833.38;;;4.92;59.66
60725;BME280;59881;36.722;-4.462;2023-01-27T04:40:53;100830.78;;;4.92;59.40
60725;BME280;59881;36.722;-4.462;2023-01-27T04:43:18;100976.19;;;4.90;59.37
60725;BME280;59881;36.722;-4.462;2023-01-27T04:45:44;100507.63;;;2.90;59.58
60725;BME280;59881;36.722;-4.462;2023-01-27T04:48:09;100729.16;;;4.23;59.73
60725;BME280;59881;36.722;-4.462;2023-01-27T04:50:35;100531.66;;;2.97;59.51
60725;BME280;59881;36.722;-4.462;2023-01-27T04:53:01;100294.06;;;1.10;59.13
60725;BME280;59881;36.722;-4.462;2023-01-27T04:55:26;100793.50;;;4.44;59.89
60725;BME280;59881;36.722;-4.462;2023-01-27T04:57:52;100665.41;;;3.64;60.42
60725;BME280;59881;36.722;-4.462;2023-01-27T05:00:19;100876.41;;;4.60;59.91
60725;BME280;59881;36.722;-4.462;2023-01-27T05:02:45;100769.19;;;4.22;61.03
60725;BME280;59881;36.722;-4.462;2023-01-27T05:05:10;100762.38;;;4.18;60.58
60725;BME280;59881;36.722;-4.462;2023-01-27T05:07:37;100838.19;;;4.59;61.37
60725;BME280;59881;36.722;-4.462;2023-01-27T05:10:04;100244.13;;;1.03;60.98
60725;BME280;59881;36.722;-4.462;2023-01-27T05:12:29;100664.84;;;3.56;60.64
60725;BME280;59881;36.722;-4.462;2023-01-27T05:14:55;100834.88;;;4.53;61.27
60725;BME280;59881;36.722;-4.462;2023-01-27T05:17:20;100693.06;;;3.68;61.76
60725;BME280;59881;36.722;-4.462;2023-01-27T05:19:46;100817.13;;;4.41;61.38
60725;BME280;59881;36.722;-4.462;2023-01-27T05:22:11;100439.50;;;1.33;61.16
60725;BME280;59881;36.722;-4.462;2023-01-27T05:24:37;100828.03;;;4.51;61.10
60725;BME280;59881;36.722;-4.462;2023-01-27T05:27:03;100823.06;;;4.45;61.04
60725;BME280;59881;36.722;-4.462;2023-01-27T05:29:29;100829.16;;;4.45;61.55
60725;BME280;59881;36.722;-4.462;2023-01-27T05:31:54;100830.84;;;4.46;61.65
60725;BME280;59881;36.722;-4.462;2023-01-27T05:34:20;100823.03;;;4.23;61.80
60725;BME280;59881;36.722;-4.462;2023-01-27T05:36:45;100824.81;;;4.44;62.12
60725;BME280;59881;36.722;-4.462;2023-01-27T05:39:11;100827.38;;;4.46;62.46
60725;BME280;59881;36.722;-4.462;2023-01-27T05:41:37;100677.78;;;3.59;61.97
60725;BME280;59881;36.722;-4.462;2023-01-27T05:44:03;100770.56;;;4.08;61.76
60725;BME280;59881;36.722;-4.462;2023-01-27T05:46:30;100481.47;;;2.23;61.92
60725;BME280;59881;36.722;-4.462;2023-01-27T05:49:00;101030.75;;;4.49;62.26
60725;BME280;59881;36.722;-4.462;2023-01-27T05:51:29;100835.16;;;4.47;62.16
60725;BME280;59881;36.722;-4.462;2023-01-27T05:53:55;100413.66;;;1.80;61.84
60725;BME280;59881;36.722;-4.462;2023-01-27T05:56:21;100321.91;;;1.31;61.75
60725;BME280;59881;36.722;-4.462;2023-01-27T05:58:47;100830.41;;;4.35;61.65
60725;BME280;59881;36.722;-4.462;2023-01-27T06:01:19;100707.44;;;3.55;61.87
60725;BME280;59881;36.722;-4.462;2023-01-27T06:03:45;100848.44;;;4.41;62.07
60725;BME280;59881;36.722;-4.462;2023-01-27T06:06:13;100748.09;;;3.82;62.48
60725;BME280;59881;36.722;-4.462;2023-01-27T06:08:38;100902.25;;;4.44;62.14
60725;BME280;59881;36.722;-4.462;2023-01-27T06:11:05;100836.19;;;4.43;62.62
60725;BME280;59881;36.722;-4.462;2023-01-27T06:13:31;100763.03;;;4.01;62.50
60725;BME280;59881;36.722;-4.462;2023-01-27T06:16:01;100840.53;;;4.43;62.40
60725;BME280;59881;36.722;-4.462;2023-01-27T06:18:27;100805.81;;;4.19;62.74
60725;BME280;59881;36.722;-4.462;2023-01-27T06:20:56;100844.28;;;4.35;62.59
60725;BME280;59881;36.722;-4.462;2023-01-27T06:23:23;100768.53;;;3.93;62.12
60725;BME280;59881;36.722;-4.462;2023-01-27T06:25:49;100845.44;;;4.28;61.92
60725;BME280;59881;36.722;-4.462;2023-01-27T06:28:15;100788.53;;;3.69;62.81
60725;BME280;59881;36.722;-4.462;2023-01-27T06:30:41;100230.69;;;0.67;62.80
60725;BME280;59881;36.722;-4.462;2023-01-27T06:33:07;100716.06;;;3.57;62.73
60725;BME280;59881;36.722;-4.462;2023-01-27T06:35:34;100773.72;;;3.94;63.03
60725;BME280;59881;36.722;-4.462;2023-01-27T06:38:02;100838.16;;;4.37;62.84
60725;BME280;59881;36.722;-4.462;2023-01-27T06:40:30;100847.72;;;4.36;62.67
60725;BME280;59881;36.722;-4.462;2023-01-27T06:42:57;100846.06;;;4.35;62.42
60725;BME280;59881;36.722;-4.462;2023-01-27T06:45:22;100316.03;;;0.99;62.59
60725;BME280;59881;36.722;-4.462;2023-01-27T06:47:59;100766.38;;;3.81;63.09
60725;BME280;59881;36.722;-4.462;2023-01-27T06:50:28;100840.66;;;4.16;63.15
60725;BME280;59881;36.722;-4.462;2023-01-27T06:53:02;100562.63;;;2.56;63.04
60725;BME280;59881;36.722;-4.462;2023-01-27T06:55:29;100835.19;;;4.24;62.73
60725;BME280;59881;36.722;-4.462;2023-01-27T06:57:54;100661.06;;;3.17;62.95
60725;BME280;59881;36.722;-4.462;2023-01-27T07:00:20;100477.66;;;2.08;62.93
60725;BME280;59881;36.722;-4.462;2023-01-27T07:02:46;100760.44;;;3.77;62.95
60725;BME280;59881;36.722;-4.462;2023-01-27T07:05:12;100832.00;;;4.15;63.09
60725;BME280;59881;36.722;-4.462;2023-01-27T07:07:38;100753.94;;;3.65;63.17
60725;BME280;59881;36.722;-4.462;2023-01-27T07:10:04;100835.63;;;4.11;63.33
60725;BME280;59881;36.722;-4.462;2023-01-27T07:12:30;100937.38;;;4.10;63.81
60725;BME280;59881;36.722;-4.462;2023-01-27T07:14:56;100970.25;;;3.89;63.32
60725;BME280;59881;36.722;-4.462;2023-01-27T07:17:21;100346.28;;;1.26;63.09
60725;BME280;59881;36.722;-4.462;2023-01-27T07:19:47;100811.16;;;4.38;63.36
60725;BME280;59881;36.722;-4.462;2023-01-27T07:22:12;100796.31;;;4.62;63.11
60725;BME280;59881;36.722;-4.462;2023-01-27T07:24:38;100476.97;;;2.03;61.64
60725;BME280;59881;36.722;-4.462;2023-01-27T07:27:03;100914.78;;;5.24;61.31
60725;BME280;59881;36.722;-4.462;2023-01-27T07:29:29;100829.81;;;5.35;60.49
60725;BME280;59881;36.722;-4.462;2023-01-27T07:31:55;100827.41;;;5.51;59.87
60725;BME280;59881;36.722;-4.462;2023-01-27T07:34:20;100830.06;;;5.70;59.66
60725;BME280;59881;36.722;-4.462;2023-01-27T07:36:46;100715.06;;;5.31;58.87
60725;BME280;59881;36.722;-4.462;2023-01-27T07:39:11;100832.09;;;7.14;57.58
60725;BME280;59881;36.722;-4.462;2023-01-27T07:41:37;100650.97;;;7.85;54.88
60725;BME280;59881;36.722;-4.462;2023-01-27T07:44:03;100685.88;;;9.65;50.58
60725;BME280;59881;36.722;-4.462;2023-01-27T07:46:28;100396.97;;;9.32;46.78
60725;BME280;59881;36.722;-4.462;2023-01-27T07:48:54;100904.50;;;12.95;43.82
60725;BME280;59881;36.722;-4.462;2023-01-27T07:51:19;100810.81;;;14.24;40.57
60725;BME280;59881;36.722;-4.462;2023-01-27T07:53:45;100987.69;;;15.22;38.15
60725;BME280;59881;36.722;-4.462;2023-01-27T07:56:11;100370.16;;;13.51;36.41
60725;BME280;59881;36.722;-4.462;2023-01-27T07:58:40;100766.84;;;16.81;34.45
60725;BME280;59881;36.722;-4.462;2023-01-27T08:01:10;100806.44;;;17.89;32.57
60725;BME280;59881;36.722;-4.462;2023-01-27T08:03:36;100760.97;;;18.36;31.51
60725;BME280;59881;36.722;-4.462;2023-01-27T08:06:07;100739.94;;;18.87;29.90
60725;BME280;59881;36.722;-4.462;2023-01-27T08:08:34;100804.16;;;19.74;28.79
60725;BME280;59881;36.722;-4.462;2023-01-27T08:11:03;100731.97;;;19.74;28.32
60725;BME280;59881;36.722;-4.462;2023-01-27T08:13:30;100702.66;;;19.98;27.06
60725;BME280;59881;36.722;-4.462;2023-01-27T08:15:58;100657.91;;;20.09;26.55
60725;BME280;59881;36.722;-4.462;2023-01-27T08:18:25;100840.84;;;21.57;26.07
60725;BME280;59881;36.722;-4.462;2023-01-27T08:20:52;100800.84;;;21.95;25.10
60725;BME280;59881;36.722;-4.462;2023-01-27T08:23:21;100471.13;;;20.37;24.25
60725;BME280;59881;36.722;-4.462;2023-01-27T08:25:51;100023.13;;;17.96;23.95
60725;BME280;59881;36.722;-4.462;2023-01-27T08:28:18;100839.78;;;23.30;23.29
60725;BME280;59881;36.722;-4.462;2023-01-27T08:30:45;100832.38;;;23.85;22.72
60725;BME280;59881;36.722;-4.462;2023-01-27T08:33:10;100783.22;;;24.28;21.95
60725;BME280;59881;36.722;-4.462;2023-01-27T08:35:36;100440.00;;;22.66;21.01
60725;BME280;59881;36.722;-4.462;2023-01-27T08:38:05;100725.03;;;24.91;20.68
60725;BME280;59881;36.722;-4.462;2023-01-27T08:40:30;100839.19;;;25.90;19.63
60725;BME280;59881;36.722;-4.462;2023-01-27T08:42:56;100769.13;;;25.68;19.25
60725;BME280;59881;36.722;-4.462;2023-01-27T08:45:22;100493.72;;;24.25;19.39
60725;BME280;59881;36.722;-4.462;2023-01-27T08:47:47;100830.19;;;26.72;18.52
60725;BME280;59881;36.722;-4.462;2023-01-27T08:50:13;100732.59;;;26.20;18.62
60725;BME280;59881;36.722;-4.462;2023-01-27T08:52:39;100778.44;;;26.95;18.30
60725;BME280;59881;36.722;-4.462;2023-01-27T08:55:04;100930.56;;;27.64;17.73
60725;BME280;59881;36.722;-4.462;2023-01-27T08:57:30;100468.44;;;25.91;17.63
60725;BME280;59881;36.722;-4.462;2023-01-27T08:59:57;100494.56;;;26.37;17.30
60725;BME280;59881;36.722;-4.462;2023-01-27T09:02:23;100848.22;;;28.63;17.14
60725;BME280;59881;36.722;-4.462;2023-01-27T09:04:49;100430.31;;;26.46;16.65
60725;BME280;59881;36.722;-4.462;2023-01-27T09:07:16;100834.97;;;29.56;16.39
60725;BME280;59881;36.722;-4.462;2023-01-27T09:09:44;100824.31;;;30.35;15.75
60725;BME280;59881;36.722;-4.462;2023-01-27T09:12:10;100836.22;;;31.06;14.63
60725;BME280;59881;36.722;-4.462;2023-01-27T09:14:35;100717.47;;;30.88;14.44
60725;BME280;59881;36.722;-4.462;2023-01-27T09:17:01;100849.69;;;32.30;14.15
60725;BME280;59881;36.722;-4.462;2023-01-27T09:19:27;100851.84;;;32.74;13.37
60725;BME280;59881;36.722;-4.462;2023-01-27T09:21:52;100950.78;;;32.98;13.49
60725;BME280;59881;36.722;-4.462;2023-01-27T09:24:18;100538.06;;;31.62;13.30
60725;BME280;59881;36.722;-4.462;2023-01-27T09:26:44;100861.81;;;34.26;12.87
60725;BME280;59881;36.722;-4.462;2023-01-27T09:29:10;100466.59;;;32.06;12.53
60725;BME280;59881;36.722;-4.462;2023-01-27T09:31:36;100275.91;;;31.45;12.05
60725;BME280;59881;36.722;-4.462;2023-01-27T09:34:02;100459.94;;;33.56;11.75
60725;BME280;59881;36.722;-4.462;2023-01-27T09:36:29;100461.22;;;34.13;11.01
60725;BME280;59881;36.722;-4.462;2023-01-27T09:39:05;100819.59;;;37.33;10.55
60725;BME280;59881;36.722;-4.462;2023-01-27T09:50:11;100848.88;;;39.95;8.99
60725;BME280;59881;36.722;-4.462;2023-01-27T09:52:27;100856.59;;;40.36;8.72
60725;BME280;59881;36.722;-4.462;2023-01-27T09:55:18;100820.94;;;40.59;8.00
60725;BME280;59881;36.722;-4.462;2023-01-27T10:09:08;100863.03;;;43.53;6.39
60725;BME280;59881;36.722;-4.462;2023-01-27T10:28:26;100858.34;;;46.05;5.47
60725;BME280;59881;36.722;-4.462;2023-01-27T10:31:13;100846.28;;;46.22;5.17
60725;BME280;59881;36.722;-4.462;2023-01-27T10:36:25;100844.44;;;46.47;5.04
60725;BME280;59881;36.722;-4.462;2023-01-27T10:50:44;100845.22;;;45.55;5.26
60725;BME280;59881;36.722;-4.462;2023-01-27T11:02:08;100818.34;;;44.47;5.55
60725;BME280;59881;36.722;-4.462;2023-01-27T11:04:46;100801.84;;;44.59;5.48
60725;BME280;59881;36.722;-4.462;2023-01-27T11:07:21;100806.53;;;42.55;5.72
60725;BME280;59881;36.722;-4.462;2023-01-27T11:09:59;100798.50;;;32.21;10.17
60725;BME280;59881;36.722;-4.462;2023-01-27T11:12:40;100806.19;;;24.60;15.62
60725;BME280;59881;36.722;-4.462;2023-01-27T11:15:29;100829.19;;;20.41;19.61
60725;BME280;59881;36.722;-4.462;2023-01-27T11:20:42;100823.97;;;16.96;24.55
60725;BME280;59881;36.722;-4.462;2023-01-27T11:23:29;100806.28;;;16.06;25.05
60725;BME280;59881;36.722;-4.462;2023-01-27T11:32:03;100161.69;;;10.95;28.09
60725;BME280;59881;36.722;-4.462;2023-01-27T11:34:40;100796.97;;;14.76;28.30
60725;BME280;59881;36.722;-4.462;2023-01-27T11:37:23;100731.53;;;14.33;28.19
60725;BME280;59881;36.722;-4.462;2023-01-27T11:39:50;100745.16;;;14.28;28.01
60725;BME280;59881;36.722;-4.462;2023-01-27T11:42:16;100664.97;;;13.71;28.04
60725;BME280;59881;36.722;-4.462;2023-01-27T11:44:43;100374.56;;;10.91;28.51
60725;BME280;59881;36.722;-4.462;2023-01-27T11:47:20;100779.97;;;14.35;28.83
60725;BME280;59881;36.722;-4.462;2023-01-27T11:49:48;100778.03;;;14.25;29.20
60725;BME280;59881;36.722;-4.462;2023-01-27T11:52:19;100763.13;;;14.13;29.08
60725;BME280;59881;36.722;-4.462;2023-01-27T11:57:25;100985.72;;;13.78;29.42
60725;BME280;59881;36.722;-4.462;2023-01-27T12:00:02;100758.34;;;13.96;29.73
60725;BME280;59881;36.722;-4.462;2023-01-27T12:02:40;100742.72;;;13.93;29.91
60725;BME280;59881;36.722;-4.462;2023-01-27T12:05:12;100688.44;;;13.64;29.87
60725;BME280;59881;36.722;-4.462;2023-01-27T12:07:56;100733.69;;;13.84;30.20
60725;BME280;59881;36.722;-4.462;2023-01-27T12:10:37;100733.06;;;13.80;30.52
60725;BME280;59881;36.722;-4.462;2023-01-27T12:13:24;100674.88;;;13.47;30.67
60725;BME280;59881;36.722;-4.462;2023-01-27T12:15:52;100715.16;;;13.84;30.72
60725;BME280;59881;36.722;-4.462;2023-01-27T12:18:20;100668.00;;;13.66;30.79
60725;BME280;59881;36.722;-4.462;2023-01-27T12:21:07;100714.41;;;13.93;30.99
60725;BME280;59881;36.722;-4.462;2023-01-27T12:23:47;100789.97;;;13.41;30.90
60725;BME280;59881;36.722;-4.462;2023-01-27T12:26:14;100728.03;;;13.89;31.46
60725;BME280;59881;36.722;-4.462;2023-01-27T12:28:49;100700.94;;;13.85;31.49
60725;BME280;59881;36.722;-4.462;2023-01-27T12:31:21;100667.03;;;13.56;31.62
60725;BME280;59881;36.722;-4.462;2023-01-27T12:34:01;100655.63;;;13.56;31.80
60725;BME280;59881;36.722;-4.462;2023-01-27T12:36:27;100664.50;;;13.55;32.06
60725;BME280;59881;36.722;-4.462;2023-01-27T12:38:56;100263.41;;;10.97;32.20
60725;BME280;59881;36.722;-4.462;2023-01-27T12:41:32;100657.44;;;13.44;32.07
60725;BME280;59881;36.722;-4.462;2023-01-27T12:44:17;100682.19;;;13.65;32.09
60725;BME280;59881;36.722;-4.462;2023-01-27T12:47:12;100691.56;;;13.70;32.28
60725;BME280;59881;36.722;-4.462;2023-01-27T12:49:40;99749.38;;;8.01;32.19
60725;BME280;59881;36.722;-4.462;2023-01-27T12:52:20;100632.53;;;13.47;32.17
60725;BME280;59881;36.722;-4.462;2023-01-27T12:54:46;100642.75;;;13.51;31.96
60725;BME280;59881;36.722;-4.462;2023-01-27T12:57:15;100627.09;;;13.37;32.39
60725;BME280;59881;36.722;-4.462;2023-01-27T12:59:50;100467.59;;;11.77;32.29
60725;BME280;59881;36.722;-4.462;2023-01-27T13:02:22;100657.25;;;13.68;31.94
60725;BME280;59881;36.722;-4.462;2023-01-27T13:05:03;100361.50;;;11.96;31.87
60725;BME280;59881;36.722;-4.462;2023-01-27T13:07:42;100618.81;;;13.53;31.82
60725;BME280;59881;36.722;-4.462;2023-01-27T13:10:22;100727.31;;;13.75;32.19
60725;BME280;59881;36.722;-4.462;2023-01-27T13:12:56;100649.91;;;13.83;32.14
60725;BME280;59881;36.722;-4.462;2023-01-27T13:15:28;100639.06;;;13.86;31.50
60725;BME280;59881;36.722;-4.462;2023-01-27T13:17:59;100577.66;;;13.60;31.67
60725;BME280;59881;36.722;-4.462;2023-01-27T13:20:42;100638.41;;;14.05;32.19
60725;BME280;59881;36.722;-4.462;2023-01-27T13:23:22;100634.41;;;14.11;31.64
60725;BME280;59881;36.722;-4.462;2023-01-27T13:26:16;100627.03;;;14.14;31.90
60725;BME280;59881;36.722;-4.462;2023-01-27T13:29:10;100627.19;;;14.13;31.31
60725;BME280;59881;36.722;-4.462;2023-01-27T13:31:54;100625.50;;;14.12;31.53
60725;BME280;59881;36.722;-4.462;2023-01-27T13:39:52;100622.03;;;14.32;32.00
60725;BME280;59881;36.722;-4.462;2023-01-27T13:42:28;100616.66;;;14.43;32.07
60725;BME280;59881;36.722;-4.462;2023-01-27T13:44:59;100611.97;;;14.47;31.97
60725;BME280;59881;36.722;-4.462;2023-01-27T13:48:20;100604.94;;;14.57;32.44
60725;BME280;59881;36.722;-4.462;2023-01-27T13:50:39;100532.91;;;14.10;31.37
60725;BME280;59881;36.722;-4.462;2023-01-27T13:53:12;100573.69;;;14.40;31.44
60725;BME280;59881;36.722;-4.462;2023-01-27T14:03:59;100587.28;;;14.67;30.96
60725;BME280;59881;36.722;-4.462;2023-01-27T14:06:37;100578.75;;;14.64;30.51
60725;BME280;59881;36.722;-4.462;2023-01-27T14:09:22;100547.06;;;14.41;29.72
60725;BME280;59881;36.722;-4.462;2023-01-27T14:17:36;100468.91;;;13.84;29.15
60725;BME280;59881;36.722;-4.462;2023-01-27T14:20:25;100570.53;;;14.46;29.33
60725;BME280;59881;36.722;-4.462;2023-01-27T14:31:12;100405.84;;;13.36;29.53
60725;BME280;59881;36.722;-4.462;2023-01-27T14:36:20;100572.28;;;14.36;29.37
60725;BME280;59881;36.722;-4.462;2023-01-27T14:41:36;100224.69;;;11.56;29.42
60725;BME280;59881;36.722;-4.462;2023-01-27T14:44:18;100575.19;;;14.33;29.64
60725;BME280;59881;36.722;-4.462;2023-01-27T14:58:34;100580.41;;;14.23;29.31
60725;BME280;59881;36.722;-4.462;2023-01-27T15:08:52;100591.38;;;14.18;29.58